createdAt,value
2018-06-08T00:01:00.676Z,100.00
2018-06-08T00:03:29.112Z,100.00
2018-06-08T00:05:57.549Z,100.00
2018-06-08T00:08:26.033Z,100.00
2018-06-08T00:10:54.452Z,100.00
2018-06-08T00:13:22.876Z,100.00
2018-06-08T00:15:51.659Z,100.00
2018-06-08T00:18:20.630Z,100.00
2018-06-08T00:20:49.147Z,100.00
2018-06-08T00:23:17.568Z,100.00
2018-06-08T00:25:46.326Z,100.00
2018-06-08T00:28:14.787Z,100.00
2018-06-08T00:30:43.240Z,100.00
2018-06-08T00:33:11.670Z,100.00
2018-06-08T00:35:40.080Z,100.00
2018-06-08T00:38:08.539Z,100.00
2018-06-08T00:40:37.142Z,100.00
2018-06-08T00:43:05.718Z,100.00
2018-06-08T00:45:34.351Z,100.00
2018-06-08T00:48:03.055Z,100.00
2018-06-08T00:50:31.495Z,100.00
2018-06-08T00:53:00.328Z,100.00
2018-06-08T00:55:29.156Z,100.00
2018-06-08T00:57:57.582Z,100.00
2018-06-08T01:00:26.020Z,100.00
2018-06-08T01:02:54.434Z,100.00
2018-06-08T01:05:22.876Z,100.00
2018-06-08T01:07:51.348Z,100.00
2018-06-08T01:10:19.820Z,100.00
2018-06-08T01:12:48.266Z,100.00
2018-06-08T01:15:17.444Z,100.00
2018-06-08T01:17:45.928Z,100.00
2018-06-08T01:20:14.331Z,100.00
2018-06-08T01:22:42.952Z,100.00
2018-06-08T01:25:11.332Z,100.00
2018-06-08T01:27:40.158Z,100.00
2018-06-08T01:30:08.865Z,100.00
2018-06-08T01:32:37.819Z,100.00
2018-06-08T01:35:07.444Z,100.00
2018-06-08T01:37:36.379Z,100.00
2018-06-08T01:40:04.913Z,100.00
2018-06-08T01:42:33.773Z,100.00
2018-06-08T01:45:02.217Z,100.00
2018-06-08T01:47:30.658Z,100.00
2018-06-08T01:49:59.072Z,100.00
2018-06-08T01:52:27.532Z,100.00
2018-06-08T01:54:56.057Z,100.00
2018-06-08T01:57:24.636Z,100.00
2018-06-08T01:59:53.111Z,100.00
2018-06-08T02:02:21.594Z,100.00
2018-06-08T02:04:50.679Z,100.00
2018-06-08T02:07:19.082Z,100.00
2018-06-08T02:09:47.500Z,100.00
2018-06-08T02:12:15.939Z,100.00
2018-06-08T02:14:44.584Z,100.00
2018-06-08T02:17:13.196Z,100.00
2018-06-08T02:19:41.684Z,100.00
2018-06-08T02:22:10.299Z,100.00
2018-06-08T02:24:38.744Z,100.00
2018-06-08T02:27:07.240Z,100.00
2018-06-08T02:29:35.676Z,100.00
2018-06-08T02:32:04.124Z,100.00
2018-06-08T02:34:32.620Z,100.00
2018-06-08T02:37:01.064Z,100.00
2018-06-08T02:39:29.529Z,100.00
2018-06-08T02:41:58.200Z,100.00
2018-06-08T02:44:26.974Z,100.00
2018-06-08T02:46:55.493Z,100.00
2018-06-08T02:49:24.044Z,100.00
2018-06-08T02:51:52.491Z,100.00
2018-06-08T02:54:20.879Z,100.00
2018-06-08T03:03:33.803Z,100.00
2018-06-08T03:06:02.236Z,100.00
2018-06-08T03:08:30.639Z,100.00
2018-06-08T03:10:59.084Z,100.00
2018-06-08T03:13:27.509Z,100.00
2018-06-08T03:15:56.499Z,100.00
2018-06-08T03:18:25.483Z,100.00
2018-06-08T03:20:54.017Z,100.00
2018-06-08T03:23:23.092Z,100.00
2018-06-08T03:25:51.870Z,100.00
2018-06-08T03:28:20.514Z,100.00
2018-06-08T03:30:49.343Z,100.00
2018-06-08T03:33:19.276Z,100.00
2018-06-08T03:35:48.187Z,100.00
2018-06-08T03:38:16.614Z,100.00
2018-06-08T03:40:45.332Z,100.00
2018-06-08T03:43:13.844Z,100.00
2018-06-08T03:45:42.327Z,100.00
2018-06-08T03:48:11.142Z,100.00
2018-06-08T03:50:39.603Z,100.00
2018-06-08T03:53:08.457Z,100.00
2018-06-08T03:55:36.959Z,100.00
2018-06-08T03:58:06.031Z,100.00
2018-06-08T04:00:35.139Z,100.00
2018-06-08T04:03:04.367Z,100.00
2018-06-08T04:05:33.532Z,100.00
2018-06-08T04:08:02.144Z,100.00
2018-06-08T04:10:31.328Z,100.00
2018-06-08T04:13:00.065Z,100.00
2018-06-08T04:15:28.534Z,100.00
2018-06-08T04:17:57.104Z,100.00
2018-06-08T04:20:26.194Z,100.00
2018-06-08T04:22:55.507Z,100.00
2018-06-08T04:25:23.968Z,100.00
2018-06-08T04:27:53.336Z,100.00
2018-06-08T04:30:22.033Z,100.00
2018-06-08T04:32:50.631Z,100.00
2018-06-08T04:35:19.050Z,100.00
2018-06-08T04:37:47.461Z,100.00
2018-06-08T04:40:15.921Z,100.00
2018-06-08T04:42:44.373Z,100.00
2018-06-08T04:45:12.825Z,100.00
2018-06-08T04:47:41.278Z,100.00
2018-06-08T04:50:09.701Z,100.00
2018-06-08T04:52:38.103Z,100.00
2018-06-08T04:55:06.530Z,100.00
2018-06-08T04:57:34.954Z,100.00
2018-06-08T05:00:03.415Z,100.00
2018-06-08T05:02:31.830Z,100.00
2018-06-08T05:05:00.235Z,100.00
2018-06-08T05:07:28.676Z,100.00
2018-06-08T05:09:57.118Z,100.00
2018-06-08T05:12:25.546Z,100.00
2018-06-08T05:14:53.942Z,100.00
2018-06-08T05:17:22.399Z,100.00
2018-06-08T05:19:50.843Z,100.00
2018-06-08T05:22:19.260Z,100.00
2018-06-08T05:24:47.703Z,100.00
2018-06-08T05:27:16.115Z,100.00
2018-06-08T05:29:45.019Z,100.00
2018-06-08T05:32:13.433Z,100.00
2018-06-08T05:34:41.876Z,100.00
2018-06-08T05:43:54.502Z,100.00
2018-06-08T05:46:22.936Z,100.00
2018-06-08T05:48:51.378Z,100.00
2018-06-08T05:51:19.796Z,100.00
2018-06-08T05:53:48.310Z,100.00
2018-06-08T05:56:16.870Z,100.00
2018-06-08T05:58:45.288Z,100.00
2018-06-08T06:01:13.743Z,100.00
2018-06-08T06:03:42.152Z,100.00
2018-06-08T06:06:10.586Z,100.00
2018-06-08T06:08:38.995Z,100.00
2018-06-08T06:11:07.403Z,100.00
2018-06-08T06:13:35.877Z,100.00
2018-06-08T06:16:04.303Z,97.21
2018-06-08T06:18:32.750Z,98.01
2018-06-08T06:21:01.206Z,100.00
2018-06-08T06:23:29.639Z,100.00
2018-06-08T06:25:58.062Z,100.00
2018-06-08T06:28:26.543Z,97.58
2018-06-08T06:30:54.982Z,98.34
2018-06-08T06:33:23.403Z,99.53
2018-06-08T06:35:51.868Z,100.00
2018-06-08T06:38:20.275Z,100.00
2018-06-08T06:40:48.987Z,100.00
2018-06-08T06:43:17.422Z,99.20
2018-06-08T06:45:45.894Z,96.91
2018-06-08T06:48:14.355Z,97.48
2018-06-08T06:50:42.784Z,98.06
2018-06-08T06:53:11.661Z,98.20
2018-06-08T06:55:40.111Z,97.99
2018-06-08T06:58:08.519Z,100.00
2018-06-08T07:00:37.057Z,99.24
2018-06-08T07:03:05.524Z,98.55
2018-06-08T07:05:33.934Z,100.00
2018-06-08T07:08:02.422Z,99.70
2018-06-08T07:10:30.884Z,99.35
2018-06-08T07:12:59.338Z,94.54
2018-06-08T07:15:27.765Z,92.81
2018-06-08T07:17:56.223Z,91.55
2018-06-08T07:20:24.623Z,93.52
2018-06-08T07:22:53.093Z,89.84
2018-06-08T07:25:21.563Z,92.84
2018-06-08T07:27:49.979Z,90.39
2018-06-08T07:30:18.511Z,89.15
2018-06-08T07:32:46.933Z,87.81
2018-06-08T07:35:15.396Z,90.50
2018-06-08T07:37:43.779Z,90.17
2018-06-08T07:40:12.211Z,88.99
2018-06-08T07:42:40.679Z,88.84
2018-06-08T07:45:09.097Z,90.08
2018-06-08T07:47:37.555Z,95.55
2018-06-08T07:50:05.998Z,92.84
2018-06-08T07:52:34.512Z,92.30
2018-06-08T07:55:02.909Z,92.34
2018-06-08T07:57:31.348Z,90.10
2018-06-08T07:59:59.906Z,90.96
2018-06-08T08:02:28.319Z,91.49
2018-06-08T08:04:56.804Z,89.25
2018-06-08T08:07:25.249Z,88.32
2018-06-08T08:09:53.683Z,88.39
2018-06-08T08:12:22.084Z,85.55
2018-06-08T08:14:50.775Z,89.16
2018-06-08T08:17:19.220Z,86.75
2018-06-08T08:19:47.626Z,88.07
2018-06-08T08:22:16.063Z,86.37
2018-06-08T08:24:44.647Z,86.33
2018-06-08T08:27:13.303Z,85.83
2018-06-08T08:29:41.744Z,84.72
2018-06-08T08:32:10.223Z,85.36
2018-06-08T08:34:38.652Z,85.56
2018-06-08T08:37:07.167Z,84.87
2018-06-08T08:39:35.605Z,83.18
2018-06-08T08:42:04.041Z,80.98
2018-06-08T08:44:32.443Z,81.32
2018-06-08T08:47:00.870Z,80.31
2018-06-08T08:49:29.302Z,77.87
2018-06-08T08:51:57.745Z,78.84
2018-06-08T08:54:26.225Z,78.77
2018-06-08T08:56:54.733Z,78.25
2018-06-08T08:59:23.071Z,78.00
2018-06-08T09:01:51.525Z,79.59
2018-06-08T09:04:19.936Z,78.86
2018-06-08T09:06:48.378Z,76.49
2018-06-08T09:09:17.029Z,76.11
2018-06-08T09:11:45.487Z,73.80
2018-06-08T09:14:13.896Z,72.57
2018-06-08T09:18:11.472Z,70.06
2018-06-08T09:20:39.931Z,70.38
2018-06-08T09:23:08.413Z,70.19
2018-06-08T09:25:36.800Z,69.57
2018-06-08T09:28:05.422Z,67.58
2018-06-08T09:30:33.886Z,66.06
2018-06-08T09:33:02.313Z,70.97
2018-06-08T09:35:30.783Z,69.66
2018-06-08T09:37:59.193Z,70.65
2018-06-08T09:40:27.625Z,68.37
2018-06-08T09:42:56.051Z,68.35
2018-06-08T09:45:24.695Z,64.00
2018-06-08T09:47:53.449Z,63.74
2018-06-08T09:50:21.843Z,64.78
2018-06-08T09:52:50.275Z,62.93
2018-06-08T09:55:18.837Z,63.69
2018-06-08T09:57:47.239Z,65.75
2018-06-08T10:00:19.791Z,65.34
2018-06-08T10:02:48.208Z,64.61
2018-06-08T10:05:16.650Z,62.03
2018-06-08T10:07:45.360Z,63.55
2018-06-08T10:10:13.788Z,62.09
2018-06-08T10:12:42.207Z,62.94
2018-06-08T10:15:10.816Z,62.53
2018-06-08T10:17:39.256Z,64.42
2018-06-08T10:20:07.707Z,63.73
2018-06-08T10:22:36.122Z,63.48
2018-06-08T10:25:04.938Z,60.55
2018-06-08T10:27:33.364Z,58.27
2018-06-08T10:30:01.758Z,56.98
2018-06-08T10:32:30.415Z,57.03
2018-06-08T10:34:58.812Z,58.03
2018-06-08T10:37:27.277Z,55.61
2018-06-08T10:39:55.885Z,56.72
2018-06-08T10:42:24.260Z,57.99
2018-06-08T10:44:52.676Z,57.40
2018-06-08T10:47:21.063Z,55.25
2018-06-08T10:49:49.511Z,57.61
2018-06-08T10:52:18.068Z,55.50
2018-06-08T10:54:46.932Z,56.57
2018-06-08T10:57:15.357Z,57.50
2018-06-08T10:59:44.247Z,55.90
2018-06-08T11:02:12.675Z,59.67
2018-06-08T11:04:41.080Z,53.32
2018-06-08T11:07:09.543Z,55.34
2018-06-08T11:09:37.962Z,56.16
2018-06-08T11:12:06.781Z,52.72
2018-06-08T11:14:35.252Z,55.87
2018-06-08T11:17:03.710Z,53.13
2018-06-08T11:21:01.294Z,52.87
2018-06-08T11:23:29.885Z,53.96
2018-06-08T11:25:58.336Z,54.37
2018-06-08T11:28:26.990Z,51.80
2018-06-08T11:30:55.387Z,49.43
2018-06-08T11:33:23.799Z,49.45
2018-06-08T11:35:52.207Z,47.98
2018-06-08T11:38:20.707Z,50.68
2018-06-08T11:40:49.134Z,49.62
2018-06-08T11:43:17.512Z,45.47
2018-06-08T11:45:45.954Z,45.32
2018-06-08T11:48:14.701Z,46.38
2018-06-08T11:50:43.133Z,46.92
2018-06-08T11:53:11.570Z,44.10
2018-06-08T11:55:40.016Z,43.74
2018-06-08T11:58:08.391Z,43.04
2018-06-08T12:00:36.857Z,43.80
2018-06-08T12:03:05.295Z,43.28
2018-06-08T12:05:33.731Z,40.87
2018-06-08T12:08:02.147Z,42.58
2018-06-08T12:10:30.587Z,38.80
2018-06-08T12:12:59.032Z,41.47
2018-06-08T12:15:28.024Z,39.81
2018-06-08T12:17:56.475Z,40.17
2018-06-08T12:20:25.149Z,38.35
2018-06-08T12:22:53.556Z,35.75
2018-06-08T12:25:21.999Z,36.41
2018-06-08T12:27:50.420Z,37.71
2018-06-08T12:30:18.932Z,36.39
2018-06-08T12:32:47.352Z,33.27
2018-06-08T12:35:15.759Z,35.09
2018-06-08T12:37:44.243Z,36.17
2018-06-08T12:40:12.790Z,38.34
2018-06-08T12:42:41.215Z,36.85
2018-06-08T12:45:09.656Z,37.33
2018-06-08T12:47:38.068Z,36.96
2018-06-08T12:50:06.923Z,36.11
2018-06-08T12:52:35.363Z,35.64
2018-06-08T12:55:03.783Z,36.68
2018-06-08T12:57:32.179Z,36.61
2018-06-08T13:00:00.578Z,36.95
2018-06-08T13:02:29.209Z,34.63
2018-06-08T13:04:57.611Z,34.94
2018-06-08T13:07:26.036Z,34.53
2018-06-08T13:09:54.460Z,34.12
2018-06-08T13:12:23.161Z,32.15
2018-06-08T13:14:51.688Z,34.27
2018-06-08T13:17:20.076Z,34.56
2018-06-08T13:19:48.532Z,32.45
2018-06-08T13:22:16.928Z,32.72
2018-06-08T13:24:45.296Z,33.01
2018-06-08T13:27:13.894Z,32.84
2018-06-08T13:29:42.300Z,32.70
2018-06-08T13:32:10.740Z,34.03
2018-06-08T13:34:39.342Z,32.36
2018-06-08T13:37:07.766Z,33.29
2018-06-08T13:39:36.267Z,32.22
2018-06-08T13:42:05.068Z,34.33
2018-06-08T13:44:33.806Z,33.50
2018-06-08T13:47:02.234Z,38.85
2018-06-08T13:49:30.846Z,32.49
2018-06-08T13:51:59.268Z,33.72
2018-06-08T13:54:27.699Z,33.45
2018-06-08T13:56:56.143Z,34.06
2018-06-08T13:59:25.490Z,32.00
2018-06-08T14:01:53.935Z,32.82
2018-06-08T14:04:22.546Z,35.12
2018-06-08T14:06:50.980Z,34.06
2018-06-08T14:09:19.384Z,33.74
2018-06-08T14:11:47.768Z,37.50
2018-06-08T14:14:16.405Z,33.97
2018-06-08T14:16:44.867Z,35.53
2018-06-08T14:19:13.332Z,34.69
2018-06-08T14:21:41.746Z,36.35
2018-06-08T14:24:10.379Z,36.25
2018-06-08T14:26:38.803Z,35.31
2018-06-08T14:29:07.424Z,35.25
2018-06-08T14:31:36.116Z,34.89
2018-06-08T14:34:04.552Z,36.39
2018-06-08T14:36:32.992Z,32.26
2018-06-08T14:39:01.363Z,32.68
2018-06-08T14:41:29.800Z,35.18
2018-06-08T14:43:58.339Z,35.98
2018-06-08T14:46:26.747Z,37.00
2018-06-08T14:48:55.727Z,35.45
2018-06-08T14:51:24.238Z,33.37
2018-06-08T14:53:52.827Z,34.62
2018-06-08T14:56:21.320Z,37.06
2018-06-08T14:58:49.879Z,35.57
2018-06-08T15:01:18.623Z,32.83
2018-06-08T15:03:47.035Z,34.04
2018-06-08T15:06:15.458Z,34.58
2018-06-08T15:08:43.945Z,34.77
2018-06-08T15:11:12.421Z,32.87
2018-06-08T15:13:40.850Z,34.38
2018-06-08T15:16:09.453Z,35.29
2018-06-08T15:18:37.918Z,35.65
2018-06-08T15:21:06.656Z,34.15
2018-06-08T15:23:36.008Z,35.87
2018-06-08T15:26:04.575Z,36.64
2018-06-08T15:28:33.170Z,36.88
2018-06-08T15:31:02.056Z,34.05
2018-06-08T15:33:30.540Z,34.91
2018-06-08T15:35:59.131Z,35.73
2018-06-08T15:38:27.582Z,33.77
2018-06-08T15:40:55.950Z,35.00
2018-06-08T15:43:24.874Z,36.55
2018-06-08T15:45:53.283Z,37.06
2018-06-08T15:48:21.792Z,36.09
2018-06-08T15:50:50.471Z,36.01
2018-06-08T15:53:18.867Z,38.33
2018-06-08T15:55:48.012Z,37.20
2018-06-08T15:58:16.432Z,37.20
2018-06-08T16:00:44.879Z,37.37
2018-06-08T16:03:13.755Z,36.08
2018-06-08T16:05:42.199Z,35.63
2018-06-08T16:08:10.607Z,39.25
2018-06-08T16:10:39.063Z,37.73
2018-06-08T16:13:07.459Z,38.54
2018-06-08T16:15:35.843Z,35.11
2018-06-08T16:18:04.788Z,39.62
2018-06-08T16:20:33.243Z,40.45
2018-06-08T16:23:01.622Z,38.38
2018-06-08T16:25:30.071Z,40.62
2018-06-08T16:27:58.628Z,39.86
2018-06-08T16:30:27.078Z,38.77
2018-06-08T16:32:55.476Z,42.47
2018-06-08T16:35:23.900Z,42.75
2018-06-08T16:37:52.336Z,42.70
2018-06-08T16:40:20.879Z,44.17
2018-06-08T16:42:49.718Z,47.64
2018-06-08T16:45:18.159Z,48.97
2018-06-08T16:47:46.592Z,48.42
2018-06-08T16:50:15.044Z,51.25
2018-06-08T16:52:43.461Z,53.39
2018-06-08T16:55:11.886Z,51.87
2018-06-08T16:57:40.295Z,52.51
2018-06-08T17:00:08.706Z,52.95
2018-06-08T17:02:37.131Z,51.25
2018-06-08T17:05:05.895Z,52.41
2018-06-08T17:07:34.335Z,53.83
2018-06-08T17:10:02.742Z,51.58
2018-06-08T17:12:31.834Z,52.84
2018-06-08T17:15:00.647Z,55.37
2018-06-08T17:17:29.352Z,56.34
2018-06-08T17:19:57.763Z,58.11
2018-06-08T17:22:26.160Z,58.24
2018-06-08T17:24:54.605Z,58.78
2018-06-08T17:27:23.012Z,60.00
2018-06-08T17:29:51.521Z,60.05
2018-06-08T17:32:20.285Z,61.35
2018-06-08T17:34:48.688Z,60.48
2018-06-08T17:37:17.115Z,61.42
2018-06-08T17:39:45.554Z,61.36
2018-06-08T17:42:14.072Z,61.47
2018-06-08T17:44:42.464Z,61.85
2018-06-08T17:47:10.926Z,61.73
2018-06-08T17:49:39.407Z,62.79
2018-06-08T17:52:07.871Z,62.96
2018-06-08T17:54:36.291Z,63.09
2018-06-08T17:57:05.010Z,64.44
2018-06-08T17:59:33.423Z,63.40
2018-06-08T18:02:02.109Z,64.86
2018-06-08T18:04:30.544Z,64.91
2018-06-08T18:06:58.956Z,66.40
2018-06-08T18:09:27.343Z,64.80
2018-06-08T18:11:55.808Z,65.34
2018-06-08T18:14:24.257Z,66.84
2018-06-08T18:16:52.968Z,66.84
2018-06-08T18:19:21.458Z,66.42
2018-06-08T18:21:50.021Z,66.42
2018-06-08T18:24:18.438Z,67.37
2018-06-08T18:26:46.877Z,67.23
2018-06-08T18:29:15.448Z,67.31
2018-06-08T18:31:43.948Z,67.29
2018-06-08T18:34:12.382Z,67.56
2018-06-08T18:36:40.858Z,68.20
2018-06-08T18:39:09.455Z,68.82
2018-06-08T18:41:37.872Z,68.14
2018-06-08T18:44:06.393Z,69.50
2018-06-08T18:46:34.805Z,69.02
2018-06-08T18:49:03.228Z,69.28
2018-06-08T18:51:31.704Z,68.69
2018-06-08T18:54:00.176Z,70.09
2018-06-08T18:56:28.697Z,69.54
2018-06-08T18:58:57.081Z,68.46
2018-06-08T19:01:25.544Z,69.45
2018-06-08T19:03:53.990Z,69.67
2018-06-08T19:06:22.482Z,70.85
2018-06-08T19:08:50.902Z,70.22
2018-06-08T19:11:19.564Z,70.58
2018-06-08T19:13:48.220Z,70.78
2018-06-08T19:16:16.995Z,72.32
2018-06-08T19:18:45.452Z,79.63
2018-06-08T19:21:13.881Z,77.97
2018-06-08T19:23:42.299Z,79.56
2018-06-08T19:26:10.748Z,77.50
2018-06-08T19:28:39.155Z,79.10
2018-06-08T19:31:07.820Z,79.15
2018-06-08T19:33:36.227Z,78.03
2018-06-08T19:36:04.680Z,78.28
2018-06-08T19:38:33.209Z,75.34
2018-06-08T19:41:01.673Z,74.65
2018-06-08T19:43:30.302Z,73.10
2018-06-08T19:45:58.720Z,71.54
2018-06-08T19:48:27.182Z,71.22
2018-06-08T19:50:56.055Z,71.56
2018-06-08T19:53:24.517Z,70.99
2018-06-08T19:55:53.144Z,71.61
2018-06-08T19:58:21.687Z,70.97
2018-06-08T20:00:50.146Z,69.67
2018-06-08T20:03:18.601Z,69.16
2018-06-08T20:05:47.039Z,69.26
2018-06-08T20:08:15.451Z,69.65
2018-06-08T20:10:43.908Z,70.54
2018-06-08T20:13:12.344Z,69.72
2018-06-08T20:15:40.768Z,71.16
2018-06-08T20:18:09.230Z,68.86
2018-06-08T20:20:38.067Z,67.29
2018-06-08T20:23:06.526Z,67.93
2018-06-08T20:25:34.974Z,67.17
2018-06-08T20:28:03.368Z,66.33
2018-06-08T20:30:31.841Z,62.24
2018-06-08T20:33:00.282Z,66.21
2018-06-08T20:35:28.745Z,63.62
2018-06-08T20:37:57.147Z,61.79
2018-06-08T20:40:25.548Z,64.44
2018-06-08T20:42:53.999Z,61.56
2018-06-08T20:45:22.453Z,60.47
2018-06-08T20:47:51.039Z,63.12
2018-06-08T20:50:19.693Z,64.24
2018-06-08T20:52:48.123Z,64.16
2018-06-08T20:55:16.578Z,63.78
2018-06-08T20:57:56.082Z,63.83
2018-06-08T21:00:24.612Z,63.79
2018-06-08T21:02:53.029Z,64.13
2018-06-08T21:05:21.827Z,64.30
2018-06-08T21:07:50.258Z,63.08
2018-06-08T21:10:18.719Z,63.26
2018-06-08T21:12:47.176Z,64.03
2018-06-08T21:15:15.657Z,65.70
2018-06-08T21:17:44.200Z,66.01
2018-06-08T21:20:12.635Z,67.26
2018-06-08T21:22:41.098Z,65.90
2018-06-08T21:25:09.638Z,68.03
2018-06-08T21:27:38.067Z,66.72
2018-06-08T21:30:06.803Z,67.20
2018-06-08T21:32:35.393Z,68.17
2018-06-08T21:35:03.822Z,68.07
2018-06-08T21:37:32.259Z,67.03
2018-06-08T21:40:00.867Z,68.61
2018-06-08T21:42:29.268Z,68.97
2018-06-08T21:44:57.667Z,69.97
2018-06-08T21:47:26.088Z,69.52
2018-06-08T21:49:54.687Z,69.74
2018-06-08T21:52:23.247Z,70.92
2018-06-08T21:54:51.706Z,69.96
2018-06-08T21:57:20.159Z,71.03
2018-06-08T21:59:48.575Z,71.42
2018-06-08T22:02:17.018Z,72.89
2018-06-08T22:04:45.621Z,72.73
2018-06-08T22:07:14.293Z,73.21
2018-06-08T22:09:42.823Z,73.58
2018-06-08T22:12:11.266Z,74.19
2018-06-08T22:14:39.723Z,74.82
2018-06-08T22:17:08.147Z,75.44
2018-06-08T22:19:36.791Z,76.40
2018-06-08T22:22:05.279Z,75.27
2018-06-08T22:24:33.788Z,73.26
2018-06-08T22:27:02.478Z,73.92
2018-06-08T22:29:30.958Z,74.98
2018-06-08T22:31:59.371Z,73.77
2018-06-08T22:34:28.057Z,73.34
2018-06-08T22:36:56.663Z,75.47
2018-06-08T22:39:25.132Z,75.04
2018-06-08T22:41:53.563Z,73.55
2018-06-08T22:44:21.999Z,76.17
2018-06-08T22:46:50.486Z,73.65
2018-06-08T22:49:18.908Z,75.53
2018-06-08T22:51:47.432Z,76.27
2018-06-08T22:54:16.153Z,76.66
2018-06-08T22:56:44.665Z,75.79
2018-06-08T22:59:13.346Z,75.01
2018-06-08T23:01:42.079Z,76.69
2018-06-08T23:04:10.540Z,76.57
2018-06-08T23:06:38.983Z,77.38
2018-06-08T23:09:08.651Z,76.24
2018-06-08T23:11:37.575Z,76.80
2018-06-08T23:14:06.011Z,76.61
2018-06-08T23:16:34.427Z,77.12
2018-06-08T23:19:02.899Z,76.97
2018-06-08T23:21:31.588Z,75.69
2018-06-08T23:23:59.999Z,75.81
2018-06-08T23:26:28.432Z,76.49
2018-06-08T23:28:56.866Z,77.25
2018-06-08T23:31:25.455Z,79.25
2018-06-08T23:33:54.164Z,78.64
2018-06-08T23:36:22.803Z,78.22
2018-06-08T23:38:51.479Z,78.91
2018-06-08T23:41:20.103Z,77.92
2018-06-08T23:43:48.589Z,78.59
2018-06-08T23:46:17.075Z,77.47
2018-06-08T23:48:45.600Z,77.42
2018-06-08T23:51:14.059Z,76.24
2018-06-08T23:53:42.524Z,75.56
2018-06-08T23:56:11.409Z,76.08
2018-06-08T23:58:39.914Z,76.64
